sensor_id;sensor_type;location;lat;lon;timestamp;temperature;humidity
21271;DHT22;10795;50.796;3.860;2023-10-31T00:00:34;10.90;99.90
21271;DHT22;10795;50.796;3.860;2023-10-31T00:03:00;10.80;99.90
21271;DHT22;10795;50.796;3.860;2023-10-31T00:05:26;10.90;99.90
21271;DHT22;10795;50.796;3.860;2023-10-31T00:07:54;10.90;99.90
21271;DHT22;10795;50.796;3.860;2023-10-31T00:10:22;10.90;99.90
21271;DHT22;10795;50.796;3.860;2023-10-31T00:12:50;10.90;99.90
21271;DHT22;10795;50.796;3.860;2023-10-31T00:15:18;11.00;99.90
21271;DHT22;10795;50.796;3.860;2023-10-31T00:17:46;10.90;99.90
21271;DHT22;10795;50.796;3.860;2023-10-31T00:20:16;10.90;99.90
21271;DHT22;10795;50.796;3.860;2023-10-31T00:22:42;10.80;99.90
21271;DHT22;10795;50.796;3.860;2023-10-31T00:25:08;11.00;99.90
21271;DHT22;10795;50.796;3.860;2023-10-31T00:27:34;11.00;99.90
21271;DHT22;10795;50.796;3.860;2023-10-31T00:29:59;11.00;99.90
21271;DHT22;10795;50.796;3.860;2023-10-31T00:32:30;11.00;99.90
21271;DHT22;10795;50.796;3.860;2023-10-31T00:34:58;10.90;99.90
21271;DHT22;10795;50.796;3.860;2023-10-31T00:37:24;10.90;99.90
21271;DHT22;10795;50.796;3.860;2023-10-31T00:39:50;10.80;99.90
21271;DHT22;10795;50.796;3.860;2023-10-31T00:42:23;10.80;99.90
21271;DHT22;10795;50.796;3.860;2023-10-31T00:44:51;10.80;99.90
21271;DHT22;10795;50.796;3.860;2023-10-31T00:47:19;10.90;99.90
21271;DHT22;10795;50.796;3.860;2023-10-31T00:49:53;10.90;99.90
21271;DHT22;10795;50.796;3.860;2023-10-31T00:52:19;10.90;99.90
21271;DHT22;10795;50.796;3.860;2023-10-31T00:54:50;10.90;99.90
21271;DHT22;10795;50.796;3.860;2023-10-31T00:57:23;10.80;99.90
21271;DHT22;10795;50.796;3.860;2023-10-31T00:59:51;10.70;99.90
21271;DHT22;10795;50.796;3.860;2023-10-31T01:02:19;10.70;99.90
21271;DHT22;10795;50.796;3.860;2023-10-31T01:04:48;10.80;99.90
21271;DHT22;10795;50.796;3.860;2023-10-31T01:07:16;10.80;99.90
21271;DHT22;10795;50.796;3.860;2023-10-31T01:09:43;10.90;99.90
21271;DHT22;10795;50.796;3.860;2023-10-31T01:12:13;10.80;99.90
21271;DHT22;10795;50.796;3.860;2023-10-31T01:14:43;10.90;99.90
21271;DHT22;10795;50.796;3.860;2023-10-31T01:17:11;10.80;99.90
21271;DHT22;10795;50.796;3.860;2023-10-31T01:19:42;10.80;99.90
21271;DHT22;10795;50.796;3.860;2023-10-31T01:22:12;10.80;99.90
21271;DHT22;10795;50.796;3.860;2023-10-31T01:24:45;10.80;99.90
21271;DHT22;10795;50.796;3.860;2023-10-31T01:27:14;10.60;99.90
21271;DHT22;10795;50.796;3.860;2023-10-31T01:29:42;10.60;99.90
21271;DHT22;10795;50.796;3.860;2023-10-31T01:32:10;10.50;99.90
21271;DHT22;10795;50.796;3.860;2023-10-31T01:34:38;10.50;99.90
21271;DHT22;10795;50.796;3.860;2023-10-31T01:37:06;10.40;99.90
21271;DHT22;10795;50.796;3.860;2023-10-31T01:39:36;10.50;99.90
21271;DHT22;10795;50.796;3.860;2023-10-31T01:42:04;10.50;99.90
21271;DHT22;10795;50.796;3.860;2023-10-31T01:44:30;10.50;99.90
21271;DHT22;10795;50.796;3.860;2023-10-31T01:47:00;10.50;99.90
21271;DHT22;10795;50.796;3.860;2023-10-31T01:49:26;10.40;99.90
21271;DHT22;10795;50.796;3.860;2023-10-31T01:51:52;10.40;99.90
21271;DHT22;10795;50.796;3.860;2023-10-31T01:54:18;10.50;99.90
21271;DHT22;10795;50.796;3.860;2023-10-31T01:56:49;10.30;99.90
21271;DHT22;10795;50.796;3.860;2023-10-31T01:59:18;10.30;99.90
21271;DHT22;10795;50.796;3.860;2023-10-31T02:01:44;10.30;99.90
21271;DHT22;10795;50.796;3.860;2023-10-31T02:04:12;10.20;99.90
21271;DHT22;10795;50.796;3.860;2023-10-31T02:06:38;10.20;99.90
21271;DHT22;10795;50.796;3.860;2023-10-31T02:09:06;10.10;99.90
21271;DHT22;10795;50.796;3.860;2023-10-31T02:11:32;10.00;99.90
21271;DHT22;10795;50.796;3.860;2023-10-31T02:14:03;10.00;99.90
21271;DHT22;10795;50.796;3.860;2023-10-31T02:16:30;10.00;99.90
21271;DHT22;10795;50.796;3.860;2023-10-31T02:19:01;10.00;99.90
21271;DHT22;10795;50.796;3.860;2023-10-31T02:21:31;9.90;99.90
21271;DHT22;10795;50.796;3.860;2023-10-31T02:24:02;9.90;99.90
21271;DHT22;10795;50.796;3.860;2023-10-31T02:26:32;9.90;99.90
21271;DHT22;10795;50.796;3.860;2023-10-31T02:28:58;9.80;99.90
21271;DHT22;10795;50.796;3.860;2023-10-31T02:31:28;9.80;99.90
21271;DHT22;10795;50.796;3.860;2023-10-31T02:33:56;9.90;99.90
21271;DHT22;10795;50.796;3.860;2023-10-31T02:36:26;9.90;99.90
21271;DHT22;10795;50.796;3.860;2023-10-31T02:38:55;9.90;99.90
21271;DHT22;10795;50.796;3.860;2023-10-31T02:41:25;9.90;99.90
21271;DHT22;10795;50.796;3.860;2023-10-31T02:43:55;9.90;99.90
21271;DHT22;10795;50.796;3.860;2023-10-31T02:46:22;10.00;99.90
21271;DHT22;10795;50.796;3.860;2023-10-31T02:48:50;10.00;99.90
21271;DHT22;10795;50.796;3.860;2023-10-31T02:51:20;9.90;99.90
21271;DHT22;10795;50.796;3.860;2023-10-31T02:53:45;10.00;99.90
21271;DHT22;10795;50.796;3.860;2023-10-31T02:56:19;10.00;99.90
21271;DHT22;10795;50.796;3.860;2023-10-31T02:58:49;9.90;99.90
21271;DHT22;10795;50.796;3.860;2023-10-31T03:01:17;9.90;99.90
21271;DHT22;10795;50.796;3.860;2023-10-31T03:03:45;10.00;99.90
21271;DHT22;10795;50.796;3.860;2023-10-31T03:06:13;9.90;99.90
21271;DHT22;10795;50.796;3.860;2023-10-31T03:08:39;9.90;99.90
21271;DHT22;10795;50.796;3.860;2023-10-31T03:11:07;9.90;99.90
21271;DHT22;10795;50.796;3.860;2023-10-31T03:13:35;9.90;99.90
21271;DHT22;10795;50.796;3.860;2023-10-31T03:16:00;9.80;99.90
21271;DHT22;10795;50.796;3.860;2023-10-31T03:18:30;9.70;99.90
21271;DHT22;10795;50.796;3.860;2023-10-31T03:20:56;9.60;99.90
21271;DHT22;10795;50.796;3.860;2023-10-31T03:23:29;9.60;99.90
21271;DHT22;10795;50.796;3.860;2023-10-31T03:25:57;9.60;99.90
21271;DHT22;10795;50.796;3.860;2023-10-31T03:28:23;9.60;99.90
21271;DHT22;10795;50.796;3.860;2023-10-31T03:30:51;9.60;99.90
21271;DHT22;10795;50.796;3.860;2023-10-31T03:33:17;9.70;99.90
21271;DHT22;10795;50.796;3.860;2023-10-31T03:35:45;9.70;99.90
21271;DHT22;10795;50.796;3.860;2023-10-31T03:38:14;9.80;99.90
21271;DHT22;10795;50.796;3.860;2023-10-31T03:40:47;9.70;99.90
21271;DHT22;10795;50.796;3.860;2023-10-31T03:43:13;9.50;99.90
21271;DHT22;10795;50.796;3.860;2023-10-31T03:45:46;9.50;99.90
21271;DHT22;10795;50.796;3.860;2023-10-31T03:48:13;9.40;99.90
21271;DHT22;10795;50.796;3.860;2023-10-31T03:50:42;9.30;99.90
21271;DHT22;10795;50.796;3.860;2023-10-31T03:53:08;9.40;99.90
21271;DHT22;10795;50.796;3.860;2023-10-31T03:55:33;9.50;99.90
21271;DHT22;10795;50.796;3.860;2023-10-31T03:57:59;9.50;99.90
21271;DHT22;10795;50.796;3.860;2023-10-31T04:00:27;9.50;99.90
21271;DHT22;10795;50.796;3.860;2023-10-31T04:02:56;9.70;99.90
21271;DHT22;10795;50.796;3.860;2023-10-31T04:05:29;9.60;99.90
21271;DHT22;10795;50.796;3.860;2023-10-31T04:07:54;9.60;99.90
21271;DHT22;10795;50.796;3.860;2023-10-31T04:10:22;9.60;99.90
21271;DHT22;10795;50.796;3.860;2023-10-31T04:12:55;9.70;99.90
21271;DHT22;10795;50.796;3.860;2023-10-31T04:15:28;9.70;99.90
21271;DHT22;10795;50.796;3.860;2023-10-31T04:17:57;9.70;99.90
21271;DHT22;10795;50.796;3.860;2023-10-31T04:20:25;9.70;99.90
21271;DHT22;10795;50.796;3.860;2023-10-31T04:22:51;9.70;99.90
21271;DHT22;10795;50.796;3.860;2023-10-31T04:25:19;9.70;99.90
21271;DHT22;10795;50.796;3.860;2023-10-31T04:27:50;9.70;99.90
21271;DHT22;10795;50.796;3.860;2023-10-31T04:30:15;9.80;99.90
21271;DHT22;10795;50.796;3.860;2023-10-31T04:32:44;9.90;99.90
21271;DHT22;10795;50.796;3.860;2023-10-31T04:35:12;9.80;99.90
21271;DHT22;10795;50.796;3.860;2023-10-31T04:37:40;9.80;99.90
21271;DHT22;10795;50.796;3.860;2023-10-31T04:40:09;9.80;99.90
21271;DHT22;10795;50.796;3.860;2023-10-31T04:42:42;9.80;99.90
21271;DHT22;10795;50.796;3.860;2023-10-31T04:45:10;9.80;99.90
21271;DHT22;10795;50.796;3.860;2023-10-31T04:47:36;9.80;99.90
21271;DHT22;10795;50.796;3.860;2023-10-31T04:50:09;9.90;99.90
21271;DHT22;10795;50.796;3.860;2023-10-31T04:52:35;9.90;99.90
21271;DHT22;10795;50.796;3.860;2023-10-31T04:55:01;9.90;99.90
21271;DHT22;10795;50.796;3.860;2023-10-31T04:57:31;9.80;99.90
21271;DHT22;10795;50.796;3.860;2023-10-31T04:59:59;9.70;99.90
21271;DHT22;10795;50.796;3.860;2023-10-31T05:02:31;9.80;99.90
21271;DHT22;10795;50.796;3.860;2023-10-31T05:04:59;9.80;99.90
21271;DHT22;10795;50.796;3.860;2023-10-31T05:07:28;9.90;99.90
21271;DHT22;10795;50.796;3.860;2023-10-31T05:09:54;9.90;99.90
21271;DHT22;10795;50.796;3.860;2023-10-31T05:12:20;9.90;99.90
21271;DHT22;10795;50.796;3.860;2023-10-31T05:14:50;9.80;99.90
21271;DHT22;10795;50.796;3.860;2023-10-31T05:17:16;9.90;99.90
21271;DHT22;10795;50.796;3.860;2023-10-31T05:19:46;9.90;99.90
21271;DHT22;10795;50.796;3.860;2023-10-31T05:22:15;9.90;99.90
21271;DHT22;10795;50.796;3.860;2023-10-31T05:24:40;9.80;99.90
21271;DHT22;10795;50.796;3.860;2023-10-31T05:27:09;9.80;99.90
21271;DHT22;10795;50.796;3.860;2023-10-31T05:29:38;9.80;99.90
21271;DHT22;10795;50.796;3.860;2023-10-31T05:32:09;9.80;99.90
21271;DHT22;10795;50.796;3.860;2023-10-31T05:34:35;9.90;99.90
21271;DHT22;10795;50.796;3.860;2023-10-31T05:37:05;9.80;99.90
21271;DHT22;10795;50.796;3.860;2023-10-31T05:39:31;9.80;99.90
21271;DHT22;10795;50.796;3.860;2023-10-31T05:41:57;9.80;99.90
21271;DHT22;10795;50.796;3.860;2023-10-31T05:44:25;9.80;99.90
21271;DHT22;10795;50.796;3.860;2023-10-31T05:46:56;9.80;99.90
21271;DHT22;10795;50.796;3.860;2023-10-31T05:49:22;9.80;99.90
21271;DHT22;10795;50.796;3.860;2023-10-31T05:51:58;9.80;99.90
21271;DHT22;10795;50.796;3.860;2023-10-31T05:54:24;9.70;99.90
21271;DHT22;10795;50.796;3.860;2023-10-31T05:56:51;9.80;99.90
21271;DHT22;10795;50.796;3.860;2023-10-31T05:59:19;9.80;99.90
21271;DHT22;10795;50.796;3.860;2023-10-31T06:01:47;9.80;99.90
21271;DHT22;10795;50.796;3.860;2023-10-31T06:04:17;9.90;99.90
21271;DHT22;10795;50.796;3.860;2023-10-31T06:06:47;10.00;99.90
21271;DHT22;10795;50.796;3.860;2023-10-31T06:09:13;10.10;99.90
21271;DHT22;10795;50.796;3.860;2023-10-31T06:11:42;10.00;99.90
21271;DHT22;10795;50.796;3.860;2023-10-31T06:14:09;9.90;99.90
21271;DHT22;10795;50.796;3.860;2023-10-31T06:16:44;10.10;99.90
21271;DHT22;10795;50.796;3.860;2023-10-31T06:19:10;10.20;99.90
21271;DHT22;10795;50.796;3.860;2023-10-31T06:21:40;10.20;99.90
21271;DHT22;10795;50.796;3.860;2023-10-31T06:24:06;10.00;99.90
21271;DHT22;10795;50.796;3.860;2023-10-31T06:26:33;10.00;99.90
21271;DHT22;10795;50.796;3.860;2023-10-31T06:29:04;10.10;99.90
21271;DHT22;10795;50.796;3.860;2023-10-31T06:31:32;10.00;99.90
21271;DHT22;10795;50.796;3.860;2023-10-31T06:33:58;10.10;99.90
21271;DHT22;10795;50.796;3.860;2023-10-31T06:36:28;10.00;99.90
21271;DHT22;10795;50.796;3.860;2023-10-31T06:38:54;9.90;99.90
21271;DHT22;10795;50.796;3.860;2023-10-31T06:41:20;9.90;99.90
21271;DHT22;10795;50.796;3.860;2023-10-31T06:43:50;10.00;99.90
21271;DHT22;10795;50.796;3.860;2023-10-31T06:46:16;10.00;99.90
21271;DHT22;10795;50.796;3.860;2023-10-31T06:48:44;10.00;99.90
21271;DHT22;10795;50.796;3.860;2023-10-31T06:51:15;10.00;99.90
21271;DHT22;10795;50.796;3.860;2023-10-31T06:53:43;9.90;99.90
21271;DHT22;10795;50.796;3.860;2023-10-31T06:56:11;9.90;99.90
21271;DHT22;10795;50.796;3.860;2023-10-31T06:58:39;10.00;99.90
21271;DHT22;10795;50.796;3.860;2023-10-31T07:01:04;10.00;99.90
21271;DHT22;10795;50.796;3.860;2023-10-31T07:03:33;10.10;99.90
21271;DHT22;10795;50.796;3.860;2023-10-31T07:06:01;10.00;99.90
21271;DHT22;10795;50.796;3.860;2023-10-31T07:08:29;10.10;99.90
21271;DHT22;10795;50.796;3.860;2023-10-31T07:10:55;10.00;99.90
21271;DHT22;10795;50.796;3.860;2023-10-31T07:13:21;10.00;99.90
21271;DHT22;10795;50.796;3.860;2023-10-31T07:15:51;10.00;99.90
21271;DHT22;10795;50.796;3.860;2023-10-31T07:18:19;9.80;99.90
21271;DHT22;10795;50.796;3.860;2023-10-31T07:20:47;10.00;99.90
21271;DHT22;10795;50.796;3.860;2023-10-31T07:23:15;10.00;99.90
21271;DHT22;10795;50.796;3.860;2023-10-31T07:25:41;10.00;99.90
21271;DHT22;10795;50.796;3.860;2023-10-31T07:28:07;10.00;99.90
21271;DHT22;10795;50.796;3.860;2023-10-31T07:30:39;9.90;99.90
21271;DHT22;10795;50.796;3.860;2023-10-31T07:33:10;9.90;99.90
21271;DHT22;10795;50.796;3.860;2023-10-31T07:35:38;9.90;99.90
21271;DHT22;10795;50.796;3.860;2023-10-31T07:38:06;9.80;99.90
21271;DHT22;10795;50.796;3.860;2023-10-31T07:40:33;9.90;99.90
21271;DHT22;10795;50.796;3.860;2023-10-31T07:43:05;9.90;99.90
21271;DHT22;10795;50.796;3.860;2023-10-31T07:45:36;9.90;99.90
21271;DHT22;10795;50.796;3.860;2023-10-31T07:48:02;9.80;99.90
21271;DHT22;10795;50.796;3.860;2023-10-31T07:50:27;10.00;99.90
21271;DHT22;10795;50.796;3.860;2023-10-31T07:52:53;10.10;99.90
21271;DHT22;10795;50.796;3.860;2023-10-31T07:55:21;10.10;99.90
21271;DHT22;10795;50.796;3.860;2023-10-31T07:57:47;10.10;99.90
21271;DHT22;10795;50.796;3.860;2023-10-31T08:00:15;10.20;99.90
21271;DHT22;10795;50.796;3.860;2023-10-31T08:02:51;10.30;99.90
21271;DHT22;10795;50.796;3.860;2023-10-31T08:05:21;10.20;99.90
21271;DHT22;10795;50.796;3.860;2023-10-31T08:07:49;10.30;99.90
21271;DHT22;10795;50.796;3.860;2023-10-31T08:10:17;10.30;99.90
21271;DHT22;10795;50.796;3.860;2023-10-31T08:12:43;10.40;99.90
21271;DHT22;10795;50.796;3.860;2023-10-31T08:15:09;10.50;99.90
21271;DHT22;10795;50.796;3.860;2023-10-31T08:17:37;10.40;99.90
21271;DHT22;10795;50.796;3.860;2023-10-31T08:20:03;10.30;99.90
21271;DHT22;10795;50.796;3.860;2023-10-31T08:22:32;10.50;99.90
21271;DHT22;10795;50.796;3.860;2023-10-31T08:25:00;10.50;99.90
21271;DHT22;10795;50.796;3.860;2023-10-31T08:27:30;10.40;99.90
21271;DHT22;10795;50.796;3.860;2023-10-31T08:29:58;10.40;99.90
21271;DHT22;10795;50.796;3.860;2023-10-31T08:32:24;10.50;99.90
21271;DHT22;10795;50.796;3.860;2023-10-31T08:34:53;10.70;99.90
21271;DHT22;10795;50.796;3.860;2023-10-31T08:37:22;10.70;99.90
21271;DHT22;10795;50.796;3.860;2023-10-31T08:39:50;10.60;99.90
21271;DHT22;10795;50.796;3.860;2023-10-31T08:42:21;10.60;99.90
21271;DHT22;10795;50.796;3.860;2023-10-31T08:44:47;10.70;99.90
21271;DHT22;10795;50.796;3.860;2023-10-31T08:47:19;10.60;99.90
21271;DHT22;10795;50.796;3.860;2023-10-31T08:49:45;10.60;99.90
21271;DHT22;10795;50.796;3.860;2023-10-31T08:52:11;10.60;99.90
21271;DHT22;10795;50.796;3.860;2023-10-31T08:54:36;10.60;99.90
21271;DHT22;10795;50.796;3.860;2023-10-31T08:57:07;10.60;99.90
21271;DHT22;10795;50.796;3.860;2023-10-31T08:59:35;10.60;99.90
21271;DHT22;10795;50.796;3.860;2023-10-31T09:02:03;10.70;99.90
21271;DHT22;10795;50.796;3.860;2023-10-31T09:04:32;10.60;99.90
21271;DHT22;10795;50.796;3.860;2023-10-31T09:07:00;10.40;99.90
21271;DHT22;10795;50.796;3.860;2023-10-31T09:09:28;10.40;99.90
21271;DHT22;10795;50.796;3.860;2023-10-31T09:11:56;10.40;99.90
21271;DHT22;10795;50.796;3.860;2023-10-31T09:14:24;10.30;99.90
21271;DHT22;10795;50.796;3.860;2023-10-31T09:16:55;10.40;99.90
21271;DHT22;10795;50.796;3.860;2023-10-31T09:19:23;10.30;99.90
21271;DHT22;10795;50.796;3.860;2023-10-31T09:21:54;10.30;99.90
21271;DHT22;10795;50.796;3.860;2023-10-31T09:24:27;10.40;99.90
21271;DHT22;10795;50.796;3.860;2023-10-31T09:26:53;10.40;99.90
21271;DHT22;10795;50.796;3.860;2023-10-31T09:29:19;10.30;99.90
21271;DHT22;10795;50.796;3.860;2023-10-31T09:31:44;10.20;99.90
21271;DHT22;10795;50.796;3.860;2023-10-31T09:34:10;10.30;99.90
21271;DHT22;10795;50.796;3.860;2023-10-31T09:36:39;10.40;99.90
21271;DHT22;10795;50.796;3.860;2023-10-31T09:39:05;10.30;99.90
21271;DHT22;10795;50.796;3.860;2023-10-31T09:41:31;10.30;99.90
21271;DHT22;10795;50.796;3.860;2023-10-31T09:44:00;10.30;99.90
21271;DHT22;10795;50.796;3.860;2023-10-31T09:46:31;10.40;99.90
21271;DHT22;10795;50.796;3.860;2023-10-31T09:48:59;10.40;99.90
21271;DHT22;10795;50.796;3.860;2023-10-31T09:51:25;10.60;99.90
21271;DHT22;10795;50.796;3.860;2023-10-31T09:53:55;10.60;99.90
21271;DHT22;10795;50.796;3.860;2023-10-31T09:56:23;10.70;99.90
21271;DHT22;10795;50.796;3.860;2023-10-31T09:58:49;10.70;99.90
21271;DHT22;10795;50.796;3.860;2023-10-31T10:01:19;10.70;99.90
21271;DHT22;10795;50.796;3.860;2023-10-31T10:03:47;10.60;99.90
21271;DHT22;10795;50.796;3.860;2023-10-31T10:06:13;10.70;99.90
21271;DHT22;10795;50.796;3.860;2023-10-31T10:08:39;10.70;99.90
21271;DHT22;10795;50.796;3.860;2023-10-31T10:11:10;10.70;99.90
21271;DHT22;10795;50.796;3.860;2023-10-31T10:13:39;10.80;99.90
21271;DHT22;10795;50.796;3.860;2023-10-31T10:16:12;10.80;99.90
21271;DHT22;10795;50.796;3.860;2023-10-31T10:18:40;10.80;99.90
21271;DHT22;10795;50.796;3.860;2023-10-31T10:21:09;10.80;99.90
21271;DHT22;10795;50.796;3.860;2023-10-31T10:23:39;10.80;99.90
21271;DHT22;10795;50.796;3.860;2023-10-31T10:26:05;10.80;99.90
21271;DHT22;10795;50.796;3.860;2023-10-31T10:28:33;10.90;99.90
21271;DHT22;10795;50.796;3.860;2023-10-31T10:31:06;10.90;99.90
21271;DHT22;10795;50.796;3.860;2023-10-31T10:33:34;11.00;99.90
21271;DHT22;10795;50.796;3.860;2023-10-31T10:36:04;11.00;99.90
21271;DHT22;10795;50.796;3.860;2023-10-31T10:38:36;11.20;99.90
21271;DHT22;10795;50.796;3.860;2023-10-31T10:41:06;11.30;99.90
21271;DHT22;10795;50.796;3.860;2023-10-31T10:43:37;11.30;99.90
21271;DHT22;10795;50.796;3.860;2023-10-31T10:46:09;11.30;99.90
21271;DHT22;10795;50.796;3.860;2023-10-31T10:48:46;11.40;99.90
21271;DHT22;10795;50.796;3.860;2023-10-31T10:51:22;11.40;99.90
21271;DHT22;10795;50.796;3.860;2023-10-31T10:54:08;11.40;99.90
21271;DHT22;10795;50.796;3.860;2023-10-31T10:56:41;11.40;99.90
21271;DHT22;10795;50.796;3.860;2023-10-31T10:59:17;11.50;99.90
21271;DHT22;10795;50.796;3.860;2023-10-31T11:01:46;11.50;99.90
21271;DHT22;10795;50.796;3.860;2023-10-31T11:04:17;11.40;99.90
21271;DHT22;10795;50.796;3.860;2023-10-31T11:06:44;11.50;99.90
21271;DHT22;10795;50.796;3.860;2023-10-31T11:09:11;11.50;99.90
21271;DHT22;10795;50.796;3.860;2023-10-31T11:11:41;11.40;99.90
21271;DHT22;10795;50.796;3.860;2023-10-31T11:14:09;11.30;99.90
21271;DHT22;10795;50.796;3.860;2023-10-31T11:17:00;11.30;99.90
21271;DHT22;10795;50.796;3.860;2023-10-31T11:19:28;11.30;99.90
21271;DHT22;10795;50.796;3.860;2023-10-31T11:21:59;11.30;99.90
21271;DHT22;10795;50.796;3.860;2023-10-31T11:24:30;11.20;99.90
21271;DHT22;10795;50.796;3.860;2023-10-31T11:27:08;11.10;99.90
21271;DHT22;10795;50.796;3.860;2023-10-31T11:29:35;11.30;99.90
21271;DHT22;10795;50.796;3.860;2023-10-31T11:32:08;11.30;99.90
21271;DHT22;10795;50.796;3.860;2023-10-31T11:34:38;11.30;99.90
21271;DHT22;10795;50.796;3.860;2023-10-31T11:37:27;11.40;99.90
21271;DHT22;10795;50.796;3.860;2023-10-31T11:40:16;11.40;99.90
21271;DHT22;10795;50.796;3.860;2023-10-31T11:42:56;11.50;99.90
21271;DHT22;10795;50.796;3.860;2023-10-31T11:45:40;11.60;99.90
21271;DHT22;10795;50.796;3.860;2023-10-31T11:48:15;11.70;99.90
21271;DHT22;10795;50.796;3.860;2023-10-31T11:50:43;11.60;99.90
21271;DHT22;10795;50.796;3.860;2023-10-31T11:53:11;11.40;99.90
21271;DHT22;10795;50.796;3.860;2023-10-31T11:55:46;11.40;99.90
21271;DHT22;10795;50.796;3.860;2023-10-31T11:58:30;11.50;99.90
21271;DHT22;10795;50.796;3.860;2023-10-31T12:01:03;11.50;99.90
21271;DHT22;10795;50.796;3.860;2023-10-31T12:03:37;11.60;99.90
21271;DHT22;10795;50.796;3.860;2023-10-31T12:06:05;11.70;99.90
21271;DHT22;10795;50.796;3.860;2023-10-31T12:08:38;11.70;99.90
21271;DHT22;10795;50.796;3.860;2023-10-31T12:11:24;11.70;99.90
21271;DHT22;10795;50.796;3.860;2023-10-31T12:16:30;11.80;99.90
21271;DHT22;10795;50.796;3.860;2023-10-31T12:19:01;11.80;99.90
21271;DHT22;10795;50.796;3.860;2023-10-31T12:24:11;11.90;99.90
21271;DHT22;10795;50.796;3.860;2023-10-31T12:26:40;11.90;99.90
21271;DHT22;10795;50.796;3.860;2023-10-31T12:29:19;12.10;99.90
21271;DHT22;10795;50.796;3.860;2023-10-31T12:31:52;12.20;99.90
21271;DHT22;10795;50.796;3.860;2023-10-31T12:34:22;12.10;99.90
21271;DHT22;10795;50.796;3.860;2023-10-31T12:36:56;12.00;99.90
21271;DHT22;10795;50.796;3.860;2023-10-31T12:39:27;12.00;99.90
21271;DHT22;10795;50.796;3.860;2023-10-31T12:41:56;12.20;99.90
21271;DHT22;10795;50.796;3.860;2023-10-31T12:44:26;12.20;99.90
21271;DHT22;10795;50.796;3.860;2023-10-31T12:46:55;12.10;99.90
21271;DHT22;10795;50.796;3.860;2023-10-31T12:49:23;12.00;99.90
21271;DHT22;10795;50.796;3.860;2023-10-31T12:52:03;12.20;99.90
21271;DHT22;10795;50.796;3.860;2023-10-31T12:54:37;12.20;99.90
21271;DHT22;10795;50.796;3.860;2023-10-31T12:57:09;12.20;99.90
21271;DHT22;10795;50.796;3.860;2023-10-31T12:59:36;12.20;99.90
21271;DHT22;10795;50.796;3.860;2023-10-31T13:02:06;12.40;99.90
21271;DHT22;10795;50.796;3.860;2023-10-31T13:04:36;12.40;99.90
21271;DHT22;10795;50.796;3.860;2023-10-31T13:07:08;12.50;99.90
21271;DHT22;10795;50.796;3.860;2023-10-31T13:09:37;12.60;99.90
21271;DHT22;10795;50.796;3.860;2023-10-31T13:12:08;12.70;99.90
21271;DHT22;10795;50.796;3.860;2023-10-31T13:14:41;12.70;99.90
21271;DHT22;10795;50.796;3.860;2023-10-31T13:17:12;12.80;99.90
21271;DHT22;10795;50.796;3.860;2023-10-31T13:19:38;13.00;99.90
21271;DHT22;10795;50.796;3.860;2023-10-31T13:22:10;13.00;99.90
21271;DHT22;10795;50.796;3.860;2023-10-31T13:24:38;12.90;99.90
21271;DHT22;10795;50.796;3.860;2023-10-31T13:27:06;13.10;99.90
21271;DHT22;10795;50.796;3.860;2023-10-31T13:29:38;13.30;99.90
21271;DHT22;10795;50.796;3.860;2023-10-31T13:32:09;13.20;99.90
21271;DHT22;10795;50.796;3.860;2023-10-31T13:34:37;13.20;99.90
21271;DHT22;10795;50.796;3.860;2023-10-31T13:37:12;13.20;99.90
21271;DHT22;10795;50.796;3.860;2023-10-31T13:39:40;13.20;99.90
21271;DHT22;10795;50.796;3.860;2023-10-31T13:42:08;13.10;99.90
21271;DHT22;10795;50.796;3.860;2023-10-31T13:44:38;13.10;99.90
21271;DHT22;10795;50.796;3.860;2023-10-31T13:47:06;13.30;99.90
21271;DHT22;10795;50.796;3.860;2023-10-31T13:49:37;13.30;99.90
21271;DHT22;10795;50.796;3.860;2023-10-31T13:52:05;13.30;99.90
21271;DHT22;10795;50.796;3.860;2023-10-31T13:54:36;13.40;99.90
21271;DHT22;10795;50.796;3.860;2023-10-31T13:57:04;13.60;99.90
21271;DHT22;10795;50.796;3.860;2023-10-31T13:59:34;13.50;99.90
21271;DHT22;10795;50.796;3.860;2023-10-31T14:02:03;13.40;99.90
21271;DHT22;10795;50.796;3.860;2023-10-31T14:04:28;13.40;99.90
21271;DHT22;10795;50.796;3.860;2023-10-31T14:06:57;13.50;99.90
21271;DHT22;10795;50.796;3.860;2023-10-31T14:09:22;13.60;99.90
21271;DHT22;10795;50.796;3.860;2023-10-31T14:11:50;13.60;99.90
21271;DHT22;10795;50.796;3.860;2023-10-31T14:14:18;13.50;99.90
21271;DHT22;10795;50.796;3.860;2023-10-31T14:16:51;13.40;99.90
21271;DHT22;10795;50.796;3.860;2023-10-31T14:19:18;13.30;99.90
21271;DHT22;10795;50.796;3.860;2023-10-31T14:21:47;13.50;99.90
21271;DHT22;10795;50.796;3.860;2023-10-31T14:24:16;13.60;99.90
21271;DHT22;10795;50.796;3.860;2023-10-31T14:26:46;13.40;99.90
21271;DHT22;10795;50.796;3.860;2023-10-31T14:29:17;13.50;99.90
21271;DHT22;10795;50.796;3.860;2023-10-31T14:31:42;13.50;99.90
21271;DHT22;10795;50.796;3.860;2023-10-31T14:34:08;13.40;99.90
21271;DHT22;10795;50.796;3.860;2023-10-31T14:36:37;13.40;99.90
21271;DHT22;10795;50.796;3.860;2023-10-31T14:39:08;13.30;99.90
21271;DHT22;10795;50.796;3.860;2023-10-31T14:41:35;13.40;99.90
21271;DHT22;10795;50.796;3.860;2023-10-31T14:44:03;13.40;99.90
21271;DHT22;10795;50.796;3.860;2023-10-31T14:46:32;13.50;99.90
21271;DHT22;10795;50.796;3.860;2023-10-31T14:49:00;13.40;99.90
21271;DHT22;10795;50.796;3.860;2023-10-31T14:51:26;13.30;99.90
21271;DHT22;10795;50.796;3.860;2023-10-31T14:53:54;13.40;99.90
21271;DHT22;10795;50.796;3.860;2023-10-31T14:56:26;13.30;99.90
21271;DHT22;10795;50.796;3.860;2023-10-31T14:58:57;13.20;99.90
21271;DHT22;10795;50.796;3.860;2023-10-31T15:01:23;13.20;99.90
21271;DHT22;10795;50.796;3.860;2023-10-31T15:03:49;13.20;99.90
21271;DHT22;10795;50.796;3.860;2023-10-31T15:06:14;13.30;99.90
21271;DHT22;10795;50.796;3.860;2023-10-31T15:08:45;13.30;99.90
21271;DHT22;10795;50.796;3.860;2023-10-31T15:11:13;13.40;99.90
21271;DHT22;10795;50.796;3.860;2023-10-31T15:13:46;13.50;99.90
21271;DHT22;10795;50.796;3.860;2023-10-31T15:16:15;13.40;99.90
21271;DHT22;10795;50.796;3.860;2023-10-31T15:18:43;13.50;99.90
21271;DHT22;10795;50.796;3.860;2023-10-31T15:21:11;13.50;99.90
21271;DHT22;10795;50.796;3.860;2023-10-31T15:23:37;13.50;99.90
21271;DHT22;10795;50.796;3.860;2023-10-31T15:26:03;13.50;99.90
21271;DHT22;10795;50.796;3.860;2023-10-31T15:28:41;13.30;99.90
21271;DHT22;10795;50.796;3.860;2023-10-31T15:31:10;13.20;99.90
21271;DHT22;10795;50.796;3.860;2023-10-31T15:33:36;13.20;99.90
21271;DHT22;10795;50.796;3.860;2023-10-31T15:36:02;13.30;99.90
21271;DHT22;10795;50.796;3.860;2023-10-31T15:38:31;13.30;99.90
21271;DHT22;10795;50.796;3.860;2023-10-31T15:40:59;13.20;99.90
21271;DHT22;10795;50.796;3.860;2023-10-31T15:43:29;13.30;99.90
21271;DHT22;10795;50.796;3.860;2023-10-31T15:45:55;13.20;99.90
21271;DHT22;10795;50.796;3.860;2023-10-31T15:48:21;13.20;99.90
21271;DHT22;10795;50.796;3.860;2023-10-31T15:50:47;13.20;99.90